Time;durP1;ratioP1;P1;durP2;ratioP2;P2;SDS_P1;SDS_P2;PMS_P1;PMS_P2;Temp;Humidity;BMP_temperature;BMP_pressure;BME280_temperature;BME280_humidity;BME280_pressure;Samples;Min_cycle;Max_cycle;Signal;HPM_P1;HPM_P2
2023/04/29 00:00:12;;;;;;;15.13;14.63;;;14.30;1.00;;;;;;4959449;28;20464;-84
2023/04/29 00:02:40;;;;;;;15.23;14.80;;;14.40;1.00;;;;;;4955307;28;20452;-84
2023/04/29 00:05:09;;;;;;;14.57;14.17;;;14.40;1.00;;;;;;4957381;28;20455;-84
2023/04/29 00:07:38;;;;;;;14.97;14.57;;;14.50;1.00;;;;;;4957897;28;20468;-84
2023/04/29 00:10:07;;;;;;;14.57;14.17;;;14.50;1.00;;;;;;4962091;28;20503;-83
2023/04/29 00:12:35;;;;;;;14.77;14.37;;;14.50;1.00;;;;;;4960248;28;20491;-82
2023/04/29 00:15:05;;;;;;;15.03;14.53;;;14.60;1.00;;;;;;4959736;28;20518;-83
2023/04/29 00:17:33;;;;;;;15.00;14.60;;;14.50;1.00;;;;;;4961677;28;22045;-83
2023/04/29 00:20:02;;;;;;;15.00;14.60;;;14.60;1.00;;;;;;4959951;28;21031;-83
2023/04/29 00:22:30;;;;;;;15.07;14.63;;;14.50;1.00;;;;;;4956507;28;20862;-81
2023/04/29 00:24:58;;;;;;;15.80;15.20;;;14.50;1.00;;;;;;4957060;28;20515;-82
2023/04/29 00:27:26;;;;;;;15.30;14.70;;;14.50;1.00;;;;;;4960802;28;20488;-82
2023/04/29 00:29:56;;;;;;;15.27;14.87;;;14.50;1.00;;;;;;4956954;28;20444;-83
2023/04/29 00:32:25;;;;;;;15.43;14.70;;;14.50;1.00;;;;;;4959807;28;20464;-85
2023/04/29 00:34:54;;;;;;;15.00;14.60;;;14.50;1.00;;;;;;4954680;28;20452;-86
2023/04/29 00:37:22;;;;;;;14.87;14.47;;;14.50;1.00;;;;;;4956302;28;20479;-85
2023/04/29 00:39:50;;;;;;;15.47;14.97;;;14.50;1.00;;;;;;4957152;28;20471;-85
2023/04/29 00:42:19;;;;;;;15.20;14.70;;;14.50;1.00;;;;;;4957870;28;20462;-83
2023/04/29 00:44:47;;;;;;;14.70;14.30;;;14.50;1.00;;;;;;4954178;28;20464;-82
2023/04/29 00:47:16;;;;;;;15.37;14.90;;;14.50;1.00;;;;;;4956711;28;20920;-83
2023/04/29 00:49:45;;;;;;;16.07;15.47;;;14.50;1.00;;;;;;4954597;28;20525;-81
2023/04/29 00:52:15;;;;;;;15.03;14.63;;;14.40;1.00;;;;;;4956196;28;20505;-81
2023/04/29 00:54:44;;;;;;;15.10;14.60;;;14.40;1.00;;;;;;4957418;28;20450;-81
2023/04/29 00:57:13;;;;;;;15.47;14.87;;;14.40;1.00;;;;;;4955621;28;20485;-82
2023/04/29 00:59:41;;;;;;;15.20;14.80;;;14.40;1.00;;;;;;4957406;28;20479;-81
2023/04/29 01:02:09;;;;;;;15.70;15.20;;;14.40;1.00;;;;;;4957953;28;20451;-80
2023/04/29 01:04:38;;;;;;;15.10;14.70;;;14.40;1.00;;;;;;4957975;28;20463;-81
2023/04/29 01:07:15;;;;;;;15.47;14.97;;;14.30;1.00;;;;;;4956667;28;20451;-81
2023/04/29 01:10:01;;;;;;;15.37;14.93;;;14.40;1.00;;;;;;4959923;28;20458;-80
2023/04/29 01:12:38;;;;;;;15.50;14.97;;;14.40;1.00;;;;;;4957114;28;20552;-82
2023/04/29 01:15:16;;;;;;;15.17;14.57;;;14.30;1.00;;;;;;4958812;28;20452;-79
2023/04/29 01:17:50;;;;;;;15.73;15.23;;;14.30;1.00;;;;;;4952150;28;21514;-81
2023/04/29 01:20:21;;;;;;;15.13;14.73;;;14.30;1.00;;;;;;4959092;28;20470;-82
2023/04/29 01:22:50;;;;;;;15.07;14.67;;;14.30;1.00;;;;;;4959155;28;20473;-80
2023/04/29 01:25:20;;;;;;;14.80;14.40;;;14.30;1.00;;;;;;4957456;28;20459;-82
2023/04/29 01:27:57;;;;;;;15.20;14.80;;;14.20;1.00;;;;;;4956895;28;20479;-82
2023/04/29 01:30:39;;;;;;;15.20;14.70;;;14.10;1.00;;;;;;4953950;28;21217;-81
2023/04/29 01:33:17;;;;;;;15.40;14.90;;;14.10;1.00;;;;;;4956094;28;20973;-78
2023/04/29 01:36:00;;;;;;;15.33;14.93;;;14.20;1.00;;;;;;4955098;28;21166;-82
2023/04/29 01:38:37;;;;;;;15.00;14.50;;;14.10;1.00;;;;;;4955643;28;20498;-80
2023/04/29 01:41:13;;;;;;;15.63;15.00;;;14.10;1.00;;;;;;4954836;28;20461;-80
2023/04/29 01:43:41;;;;;;;15.20;14.70;;;14.00;1.00;;;;;;4955681;28;20482;-80
2023/04/29 01:46:10;;;;;;;15.90;15.13;;;14.00;1.00;;;;;;4955885;28;20506;-80
2023/04/29 01:48:39;;;;;;;15.60;15.10;;;14.00;1.00;;;;;;4956506;28;20474;-81
2023/04/29 01:51:07;;;;;;;15.70;15.20;;;13.90;1.00;;;;;;4959002;28;21069;-81
2023/04/29 01:53:35;;;;;;;16.10;15.50;;;13.90;1.00;;;;;;4962928;28;20470;-81
2023/04/29 01:56:04;;;;;;;15.13;14.73;;;13.90;1.00;;;;;;4965253;28;20538;-81
2023/04/29 01:58:34;;;;;;;16.63;16.00;;;13.90;1.00;;;;;;4961979;28;20479;-82
2023/04/29 02:01:02;;;;;;;15.43;14.93;;;14.00;1.00;;;;;;4960907;28;20482;-81
2023/04/29 02:03:30;;;;;;;14.93;14.53;;;13.90;1.00;;;;;;4959418;28;20514;-81
2023/04/29 02:05:59;;;;;;;15.80;15.20;;;13.90;1.00;;;;;;4964556;28;20466;-80
2023/04/29 02:08:27;;;;;;;15.20;14.70;;;13.90;1.00;;;;;;4960902;28;20619;-82
2023/04/29 02:10:56;;;;;;;15.70;15.20;;;13.90;1.00;;;;;;4959500;28;20463;-82
2023/04/29 02:13:24;;;;;;;15.20;14.70;;;13.90;1.00;;;;;;4956559;28;20589;-79
2023/04/29 02:15:54;;;;;;;15.23;14.73;;;13.90;1.00;;;;;;4959027;28;20508;-80
2023/04/29 02:18:22;;;;;;;15.17;14.77;;;13.90;1.00;;;;;;4957181;28;20540;-81
2023/04/29 02:20:50;;;;;;;15.13;14.60;;;13.90;1.00;;;;;;4959241;28;20451;-81
2023/04/29 02:23:18;;;;;;;15.20;14.70;;;13.90;1.00;;;;;;4962807;28;20443;-82
2023/04/29 02:25:48;;;;;;;15.70;15.20;;;13.90;1.00;;;;;;4960033;28;20479;-81
2023/04/29 02:28:16;;;;;;;15.40;14.90;;;13.90;1.00;;;;;;4960909;28;20472;-82
2023/04/29 02:30:45;;;;;;;15.90;15.40;;;13.80;1.00;;;;;;4960798;28;20466;-82
2023/04/29 02:33:15;;;;;;;16.10;15.40;;;13.80;1.00;;;;;;4959002;28;20495;-80
2023/04/29 02:35:43;;;;;;;16.43;15.90;;;13.80;1.00;;;;;;4962434;28;20454;-80
2023/04/29 02:38:11;;;;;;;15.70;15.10;;;13.80;1.00;;;;;;4960566;28;20508;-81
2023/04/29 02:40:42;;;;;;;16.57;15.87;;;13.80;1.00;;;;;;4964781;28;20564;-81
2023/04/29 02:43:10;;;;;;;16.37;15.87;;;13.80;1.00;;;;;;4962205;28;20470;-81
2023/04/29 02:45:39;;;;;;;15.77;15.17;;;13.80;1.00;;;;;;4960901;28;20463;-81
2023/04/29 02:48:08;;;;;;;15.70;15.20;;;13.80;1.00;;;;;;4962106;28;20564;-80
2023/04/29 02:50:38;;;;;;;15.27;14.83;;;13.80;1.00;;;;;;4961189;28;20550;-81
2023/04/29 02:53:06;;;;;;;15.57;15.07;;;13.70;1.00;;;;;;4964816;28;20455;-82
2023/04/29 02:55:34;;;;;;;15.90;15.30;;;13.70;1.00;;;;;;4960484;28;20464;-83
2023/04/29 02:58:03;;;;;;;15.57;15.07;;;13.60;1.00;;;;;;4956821;28;20525;-82
2023/04/29 03:00:31;;;;;;;15.67;15.17;;;13.60;1.00;;;;;;4960831;28;20489;-83
2023/04/29 03:03:00;;;;;;;15.93;15.33;;;13.60;1.00;;;;;;4963114;28;20463;-84
2023/04/29 03:05:29;;;;;;;15.70;15.20;;;13.70;1.00;;;;;;4962731;28;20539;-83
2023/04/29 03:07:58;;;;;;;16.23;15.70;;;13.60;1.00;;;;;;4959245;28;21536;-82
2023/04/29 03:10:26;;;;;;;15.97;15.37;;;13.60;1.00;;;;;;4960792;28;20486;-82
2023/04/29 03:12:54;;;;;;;15.93;15.43;;;13.60;1.00;;;;;;4955946;28;20497;-82
2023/04/29 03:15:23;;;;;;;16.20;15.60;;;13.60;1.00;;;;;;4958021;28;20500;-82
2023/04/29 03:17:51;;;;;;;16.33;15.83;;;13.60;1.00;;;;;;4962319;28;20479;-83
2023/04/29 03:20:19;;;;;;;15.93;15.40;;;13.60;1.00;;;;;;4959961;28;20474;-82
2023/04/29 03:22:47;;;;;;;16.50;15.80;;;13.60;1.00;;;;;;4961448;28;20489;-83
2023/04/29 03:25:17;;;;;;;16.33;15.70;;;13.50;1.00;;;;;;4961613;28;20463;-82
2023/04/29 03:27:46;;;;;;;16.00;15.40;;;13.50;1.00;;;;;;4961275;28;20493;-83
2023/04/29 03:30:14;;;;;;;15.90;15.40;;;13.40;1.00;;;;;;4961585;28;20466;-83
2023/04/29 03:32:42;;;;;;;15.63;15.10;;;13.40;1.00;;;;;;4959096;28;20498;-82
2023/04/29 03:35:11;;;;;;;16.10;15.40;;;13.30;1.00;;;;;;4961550;28;20450;-82
2023/04/29 03:37:43;;;;;;;15.80;15.30;;;13.40;1.00;;;;;;4956893;28;20475;-82
2023/04/29 03:40:13;;;;;;;15.97;15.30;;;13.40;1.00;;;;;;4961619;28;20485;-82
2023/04/29 03:42:42;;;;;;;15.77;15.27;;;13.40;1.00;;;;;;4959889;28;20466;-82
2023/04/29 03:45:13;;;;;;;15.57;15.13;;;13.50;1.00;;;;;;4959086;28;21006;-82
2023/04/29 03:47:41;;;;;;;16.43;15.77;;;13.50;1.00;;;;;;4961186;28;20482;-83
2023/04/29 03:50:10;;;;;;;16.20;15.37;;;13.40;1.00;;;;;;4958411;28;20460;-82
2023/04/29 03:52:39;;;;;;;15.47;14.97;;;13.30;1.00;;;;;;4958884;28;20447;-83
2023/04/29 03:55:07;;;;;;;15.60;15.10;;;13.30;1.00;;;;;;4961195;28;20459;-83
2023/04/29 03:57:35;;;;;;;16.03;15.47;;;13.40;1.00;;;;;;4958225;28;20493;-82
2023/04/29 04:00:07;;;;;;;15.77;15.27;;;13.40;1.00;;;;;;4961209;28;20483;-82
2023/04/29 04:02:36;;;;;;;15.60;15.10;;;13.40;1.00;;;;;;4960694;28;20554;-83
2023/04/29 04:05:04;;;;;;;15.60;15.20;;;13.40;1.00;;;;;;4963440;28;20566;-83
2023/04/29 04:07:33;;;;;;;15.70;15.20;;;13.30;1.00;;;;;;4961145;28;20547;-80
2023/04/29 04:10:01;;;;;;;15.70;15.20;;;13.30;1.00;;;;;;4962816;28;20458;-82
2023/04/29 04:12:29;;;;;;;16.47;15.40;;;13.30;1.00;;;;;;4953512;28;20470;-82
2023/04/29 04:14:58;;;;;;;16.50;16.00;;;13.20;1.00;;;;;;4963516;28;20470;-81
2023/04/29 04:17:27;;;;;;;16.00;15.50;;;13.20;1.00;;;;;;4962241;28;21006;-82
2023/04/29 04:19:55;;;;;;;16.37;15.70;;;13.10;1.00;;;;;;4961429;28;20482;-82
2023/04/29 04:22:23;;;;;;;16.40;15.90;;;13.10;1.00;;;;;;4974551;28;20469;-82
2023/04/29 04:24:54;;;;;;;16.20;15.70;;;13.10;1.00;;;;;;4961376;28;20452;-83
2023/04/29 04:27:22;;;;;;;16.50;16.00;;;13.10;1.00;;;;;;4961252;28;20470;-81
2023/04/29 04:29:53;;;;;;;16.10;15.60;;;13.00;1.00;;;;;;4957314;28;20459;-82
2023/04/29 04:32:22;;;;;;;16.40;15.70;;;13.00;1.00;;;;;;4957871;28;20992;-82
2023/04/29 04:34:52;;;;;;;16.37;15.80;;;13.00;1.00;;;;;;4959235;28;20478;-81
2023/04/29 04:37:20;;;;;;;16.17;15.67;;;13.00;1.00;;;;;;4959844;28;20479;-82
2023/04/29 04:39:48;;;;;;;15.73;15.23;;;12.90;99.90;;;;;;4961610;28;20486;-82
2023/04/29 04:42:17;;;;;;;17.17;16.50;;;12.90;1.00;;;;;;4963563;28;20468;-81
2023/04/29 04:44:47;;;;;;;16.03;15.53;;;12.80;1.00;;;;;;4963659;28;20458;-82
2023/04/29 04:47:15;;;;;;;16.07;15.57;;;12.90;1.00;;;;;;4960671;28;20456;-82
2023/04/29 04:49:43;;;;;;;16.10;15.60;;;12.90;1.00;;;;;;4962622;28;20654;-81
2023/04/29 04:52:13;;;;;;;16.23;15.60;;;12.80;1.00;;;;;;4965529;28;20458;-82
2023/04/29 04:54:45;;;;;;;16.40;15.70;;;12.80;1.00;;;;;;4964186;28;20458;-81
2023/04/29 04:57:13;;;;;;;16.10;15.60;;;12.80;99.90;;;;;;4966395;28;20848;-82
2023/04/29 04:59:42;;;;;;;15.93;15.43;;;12.70;1.00;;;;;;4963434;28;20482;-82
2023/04/29 05:02:10;;;;;;;16.10;15.60;;;12.80;1.00;;;;;;4965930;28;20469;-81
2023/04/29 05:04:38;;;;;;;16.33;15.83;;;12.80;1.00;;;;;;4959758;28;20506;-82
2023/04/29 05:07:06;;;;;;;15.93;15.43;;;12.80;1.00;;;;;;4956988;28;20454;-81
2023/04/29 05:09:36;;;;;;;16.07;15.53;;;12.90;1.00;;;;;;4962644;28;20463;-81
2023/04/29 05:12:05;;;;;;;15.90;15.40;;;12.90;99.90;;;;;;4962623;28;21139;-79
2023/04/29 05:14:33;;;;;;;16.90;16.30;;;12.90;99.90;;;;;;4961023;28;21071;-82
2023/04/29 05:17:01;;;;;;;16.60;16.00;;;12.90;1.00;;;;;;4963379;28;20462;-81
2023/04/29 05:19:30;;;;;;;16.40;15.80;;;13.00;99.90;;;;;;4966198;28;20485;-83
2023/04/29 05:21:58;;;;;;;16.60;16.10;;;13.00;99.90;;;;;;4960579;28;20605;-80
2023/04/29 05:24:26;;;;;;;16.53;16.03;;;13.00;99.90;;;;;;4962957;28;20455;-82
2023/04/29 05:26:56;;;;;;;16.80;16.20;;;13.10;99.90;;;;;;4962855;28;20470;-82
2023/04/29 05:29:26;;;;;;;16.50;15.80;;;13.10;99.90;;;;;;4960641;28;20474;-83
2023/04/29 05:31:54;;;;;;;17.00;16.50;;;13.10;99.90;;;;;;4965285;28;20478;-82
2023/04/29 05:34:22;;;;;;;17.07;16.47;;;13.10;99.90;;;;;;4960642;28;20494;-82
2023/04/29 05:36:50;;;;;;;16.63;16.13;;;13.10;99.90;;;;;;4964511;28;20466;-82
2023/04/29 05:39:21;;;;;;;16.40;15.90;;;13.10;99.90;;;;;;4958794;28;20478;-82
2023/04/29 05:41:49;;;;;;;16.87;16.27;;;13.10;99.90;;;;;;4960948;28;20494;-82
2023/04/29 05:44:19;;;;;;;16.40;15.87;;;13.20;1.00;;;;;;4958281;28;20447;-83
2023/04/29 05:46:48;;;;;;;16.17;15.67;;;13.20;1.00;;;;;;4958350;28;20462;-83
2023/04/29 05:49:16;;;;;;;16.57;16.07;;;13.30;1.00;;;;;;4957578;28;20597;-83
2023/04/29 05:51:44;;;;;;;16.80;16.30;;;13.30;1.00;;;;;;4960312;28;20471;-82
2023/04/29 05:54:12;;;;;;;16.87;16.37;;;13.30;99.90;;;;;;4960223;28;20458;-81
2023/04/29 05:56:41;;;;;;;17.10;16.50;;;13.40;1.00;;;;;;4959457;28;20464;-82
2023/04/29 05:59:09;;;;;;;17.67;16.97;;;13.50;1.00;;;;;;4960210;28;20482;-82
2023/04/29 06:01:39;;;;;;;17.30;16.70;;;13.50;99.90;;;;;;4959621;28;20479;-82
2023/04/29 06:04:07;;;;;;;18.33;17.57;;;13.50;99.90;;;;;;4959340;28;20479;-82
2023/04/29 06:06:35;;;;;;;16.90;16.30;;;13.70;99.90;;;;;;4961955;28;21164;-83
2023/04/29 06:09:04;;;;;;;17.80;17.10;;;14.00;99.90;;;;;;4957757;28;20551;-82
2023/04/29 06:11:44;;;;;;;17.40;16.70;;;14.30;1.00;;;;;;4957827;28;20447;-82
2023/04/29 06:14:12;;;;;;;17.50;16.80;;;14.60;99.90;;;;;;4957013;28;20526;-82
2023/04/29 06:16:42;;;;;;;17.57;16.87;;;15.10;1.00;;;;;;4961302;28;20503;-82
2023/04/29 06:19:10;;;;;;;16.70;16.10;;;15.30;1.00;;;;;;4962801;28;20559;-84
2023/04/29 06:21:38;;;;;;;16.53;15.93;;;15.40;99.90;;;;;;4955944;28;20473;-82
2023/04/29 06:24:06;;;;;;;16.77;16.17;;;15.50;99.90;;;;;;4957794;28;20470;-81
2023/04/29 06:26:35;;;;;;;16.30;15.80;;;15.40;1.00;;;;;;4960679;28;20503;-82
2023/04/29 06:29:03;;;;;;;15.97;15.47;;;15.30;1.00;;;;;;4956747;28;20484;-83
2023/04/29 06:31:31;;;;;;;16.10;15.60;;;15.10;99.90;;;;;;4956050;28;20471;-84
2023/04/29 06:34:01;;;;;;;16.40;15.90;;;15.10;99.90;;;;;;4960881;28;20468;-82
2023/04/29 06:36:29;;;;;;;16.90;16.33;;;15.00;99.90;;;;;;4954788;28;20459;-82
2023/04/29 06:38:57;;;;;;;15.97;15.47;;;14.90;99.90;;;;;;4960624;28;20546;-81
2023/04/29 06:41:26;;;;;;;15.77;15.37;;;14.80;1.00;;;;;;4964721;28;20492;-81
2023/04/29 06:43:54;;;;;;;15.53;15.13;;;14.70;19.20;;;;;;4963436;28;20463;-82
2023/04/29 06:46:22;;;;;;;15.70;15.30;;;14.70;1.00;;;;;;4958544;28;20589;-82
2023/04/29 06:48:50;;;;;;;16.27;15.77;;;14.90;1.00;;;;;;4963459;28;20468;-81
2023/04/29 06:51:20;;;;;;;17.20;16.63;;;15.00;36.30;;;;;;4960398;28;20459;-82
2023/04/29 06:53:48;;;;;;;16.90;16.30;;;15.40;80.90;;;;;;4961278;28;21410;-82
2023/04/29 06:56:16;;;;;;;16.80;16.30;;;15.80;61.60;;;;;;4961101;28;20474;-82
2023/04/29 06:58:44;;;;;;;16.80;16.30;;;16.00;1.00;;;;;;4962918;28;20478;-81
2023/04/29 07:01:12;;;;;;;17.37;16.87;;;16.10;99.90;;;;;;4959140;28;20538;-81
2023/04/29 07:03:41;;;;;;;17.33;16.73;;;16.00;1.00;;;;;;4962511;28;20468;-80
2023/04/29 07:06:09;;;;;;;17.70;17.10;;;15.90;1.00;;;;;;4964746;28;20462;-82
2023/04/29 07:08:41;;;;;;;17.23;16.73;;;15.80;99.90;;;;;;4961036;28;20480;-82
2023/04/29 07:11:09;;;;;;;17.20;16.60;;;15.70;1.00;;;;;;4962050;28;20466;-82
2023/04/29 07:13:37;;;;;;;17.50;16.90;;;15.60;99.90;;;;;;4962744;28;20463;-82
2023/04/29 07:16:14;;;;;;;17.10;16.50;;;15.60;1.00;;;;;;4963259;28;20458;-81
2023/04/29 07:18:42;;;;;;;17.20;16.60;;;15.70;99.90;;;;;;4960623;28;20493;-83
2023/04/29 07:21:10;;;;;;;17.37;16.80;;;15.70;99.90;;;;;;4962222;28;20472;-82
2023/04/29 07:23:40;;;;;;;17.63;16.90;;;15.70;1.00;;;;;;4963250;28;20443;-86
2023/04/29 07:26:12;;;;;;;17.60;16.90;;;15.70;99.90;;;;;;4965852;28;20459;-83
2023/04/29 07:28:40;;;;;;;16.93;16.33;;;15.80;49.30;;;;;;4970457;28;20485;-84
2023/04/29 07:31:09;;;;;;;17.50;16.90;;;15.80;1.00;;;;;;4966052;28;20457;-84
2023/04/29 07:33:38;;;;;;;17.57;16.97;;;15.80;1.00;;;;;;4964391;28;20452;-82
2023/04/29 07:36:06;;;;;;;16.70;16.20;;;15.70;99.90;;;;;;4963236;28;20484;-85
2023/04/29 07:38:35;;;;;;;16.73;16.27;;;15.80;1.00;;;;;;4962875;28;20543;-82
2023/04/29 07:41:05;;;;;;;16.70;16.20;;;15.70;99.90;;;;;;4964422;28;20465;-82
2023/04/29 07:43:34;;;;;;;17.40;16.70;;;15.60;99.90;;;;;;4963010;28;20467;-84
2023/04/29 07:46:02;;;;;;;17.40;16.80;;;15.50;99.90;;;;;;4965256;28;20474;-82
2023/04/29 07:48:30;;;;;;;17.92;17.33;;;15.60;99.90;;;;;;4958652;28;20999;-79
2023/04/29 07:50:59;;;;;;;17.00;16.40;;;15.60;99.90;;;;;;4958716;28;20249;-79
2023/04/29 07:53:27;;;;;;;17.70;17.10;;;15.60;99.90;;;;;;4958762;28;21270;-78
2023/04/29 07:55:55;;;;;;;17.80;17.10;;;15.60;99.90;;;;;;4959903;28;20300;-79
2023/04/29 07:58:24;;;;;;;17.40;16.90;;;15.70;99.90;;;;;;4959463;28;20481;-81
2023/04/29 08:00:53;;;;;;;17.27;16.57;;;15.90;99.90;;;;;;4958518;28;20794;-81
2023/04/29 08:03:21;;;;;;;17.40;16.77;;;15.90;99.90;;;;;;4954058;28;20486;-79
2023/04/29 08:05:52;;;;;;;16.83;16.13;;;15.90;99.90;;;;;;4956319;28;20544;-77
2023/04/29 08:08:21;;;;;;;16.70;16.20;;;15.90;99.90;;;;;;4954446;28;20876;-79
2023/04/29 08:10:49;;;;;;;16.67;16.17;;;15.90;99.90;;;;;;4958335;28;21336;-78
2023/04/29 08:13:17;;;;;;;17.00;16.40;;;15.80;99.90;;;;;;4957005;28;20449;-80
2023/04/29 08:15:46;;;;;;;16.60;16.00;;;15.80;99.90;;;;;;4959780;28;20203;-80
2023/04/29 08:18:15;;;;;;;16.10;15.60;;;15.90;99.90;;;;;;4963080;28;20469;-82
2023/04/29 08:20:43;;;;;;;16.67;15.97;;;15.90;99.90;;;;;;4954997;28;20458;-80
2023/04/29 08:23:11;;;;;;;16.90;16.33;;;16.10;99.90;;;;;;4960330;28;20479;-85
2023/04/29 08:25:42;;;;;;;17.00;16.40;;;16.10;99.90;;;;;;4959953;28;20464;-84
2023/04/29 08:28:10;;;;;;;16.63;16.13;;;16.10;99.90;;;;;;4965422;28;21109;-83
2023/04/29 08:30:40;;;;;;;17.03;16.43;;;16.30;99.90;;;;;;4958020;28;20943;-84
2023/04/29 08:33:11;;;;;;;16.90;16.40;;;16.50;99.90;;;;;;4962858;28;20458;-83
2023/04/29 08:35:40;;;;;;;16.50;16.00;;;16.50;95.20;;;;;;4959657;28;20496;-82
2023/04/29 08:38:10;;;;;;;16.60;15.80;;;16.60;1.00;;;;;;4957547;28;20505;-84
2023/04/29 08:40:44;;;;;;;16.20;15.70;;;16.60;63.50;;;;;;4956598;28;20456;-83
2023/04/29 08:43:14;;;;;;;16.13;15.63;;;16.70;22.20;;;;;;4961386;28;20482;-83
2023/04/29 08:45:43;;;;;;;16.50;15.90;;;16.60;1.00;;;;;;4960915;28;20460;-84
2023/04/29 08:48:13;;;;;;;16.13;15.70;;;16.70;1.00;;;;;;4962149;28;20563;-84
2023/04/29 08:50:42;;;;;;;16.53;16.03;;;16.80;1.00;;;;;;4957248;28;20466;-82
2023/04/29 08:53:11;;;;;;;16.50;16.00;;;16.90;1.00;;;;;;4956714;28;20519;-84
2023/04/29 08:55:42;;;;;;;16.07;15.67;;;17.00;1.00;;;;;;4958272;28;20973;-83
2023/04/29 08:58:11;;;;;;;16.40;15.80;;;17.00;1.00;;;;;;4958189;28;20828;-84
2023/04/29 09:00:41;;;;;;;16.67;16.10;;;16.90;1.00;;;;;;4955987;28;20543;-83
2023/04/29 09:03:17;;;;;;;16.30;15.70;;;16.90;1.00;;;;;;4955853;28;20228;-83
2023/04/29 09:05:52;;;;;;;16.10;15.60;;;17.00;1.00;;;;;;4958640;28;20455;-82
2023/04/29 09:08:22;;;;;;;16.30;15.90;;;17.00;1.00;;;;;;4958385;28;20565;-84
2023/04/29 09:10:51;;;;;;;17.27;16.27;;;17.10;1.00;;;;;;4957560;28;20470;-84
2023/04/29 09:13:24;;;;;;;16.20;15.70;;;17.10;1.00;;;;;;4960280;28;20471;-83
2023/04/29 09:15:53;;;;;;;16.43;15.93;;;17.20;1.00;;;;;;4963650;28;20466;-85
2023/04/29 09:18:44;;;;;;;16.67;15.97;;;17.30;1.00;;;;;;4961360;28;20489;-84
2023/04/29 09:21:17;;;;;;;16.03;15.50;;;17.30;1.00;;;;;;4962807;28;20486;-84
2023/04/29 09:23:53;;;;;;;16.20;15.70;;;17.30;1.00;;;;;;4960056;28;20483;-84
2023/04/29 09:26:23;;;;;;;16.70;16.20;;;17.10;1.00;;;;;;4960376;28;20458;-84
2023/04/29 09:29:08;;;;;;;16.50;16.00;;;17.10;1.00;;;;;;4961554;28;20545;-81
2023/04/29 09:31:38;;;;;;;16.97;16.47;;;17.00;1.00;;;;;;4959559;28;20465;-78
2023/04/29 09:34:08;;;;;;;16.37;15.87;;;16.90;1.00;;;;;;4953588;28;20594;-78
2023/04/29 09:36:37;;;;;;;16.10;15.60;;;16.90;1.00;;;;;;4943608;28;21003;-79
2023/04/29 09:39:10;;;;;;;17.40;16.80;;;16.90;1.00;;;;;;4952745;28;20494;-78
2023/04/29 09:41:57;;;;;;;16.73;16.23;;;16.80;1.00;;;;;;4957222;28;20991;-80
2023/04/29 09:44:27;;;;;;;16.70;16.10;;;16.80;1.00;;;;;;4952453;28;21315;-78
2023/04/29 09:47:02;;;;;;;16.23;15.73;;;16.70;1.00;;;;;;4951877;28;20462;-79
2023/04/29 09:49:34;;;;;;;16.07;15.60;;;16.70;1.00;;;;;;4957563;28;20455;-80
2023/04/29 09:52:05;;;;;;;16.40;15.80;;;16.60;1.00;;;;;;4955554;28;20487;-80
2023/04/29 09:54:35;;;;;;;16.73;16.17;;;16.60;26.50;;;;;;4957489;28;20488;-79
2023/04/29 09:57:05;;;;;;;16.47;15.93;;;16.80;95.10;;;;;;4957255;28;20446;-79
2023/04/29 09:59:36;;;;;;;16.60;16.10;;;16.80;83.80;;;;;;4957052;28;20461;-79
2023/04/29 10:02:08;;;;;;;16.37;15.87;;;16.90;1.00;;;;;;4952645;28;20471;-79
2023/04/29 10:04:40;;;;;;;16.10;15.60;;;16.80;1.00;;;;;;4957297;28;20582;-80
2023/04/29 10:07:09;;;;;;;16.57;16.03;;;16.90;1.00;;;;;;4958842;28;20673;-80
2023/04/29 10:09:39;;;;;;;15.73;15.30;;;17.00;1.00;;;;;;4959454;28;20472;-79
2023/04/29 10:12:08;;;;;;;15.70;15.30;;;17.00;1.00;;;;;;4959697;28;20446;-79
2023/04/29 10:14:47;;;;;;;15.80;15.30;;;17.10;1.00;;;;;;4957250;28;20445;-79
2023/04/29 10:17:20;;;;;;;16.30;15.70;;;17.20;1.00;;;;;;4954093;28;20465;-80
2023/04/29 10:20:06;;;;;;;16.20;15.50;;;17.20;1.00;;;;;;4955725;28;20550;-80
2023/04/29 10:22:40;;;;;;;15.67;15.27;;;17.40;1.00;;;;;;4959733;28;20469;-78
2023/04/29 10:25:10;;;;;;;16.20;15.70;;;17.50;1.00;;;;;;4960088;28;20478;-80
2023/04/29 10:27:41;;;;;;;16.47;15.87;;;17.60;1.00;;;;;;4960657;28;21003;-79
2023/04/29 10:30:13;;;;;;;16.83;16.10;;;17.60;1.00;;;;;;4963251;28;20800;-80
2023/04/29 10:32:42;;;;;;;15.70;15.20;;;17.80;1.00;;;;;;4958028;28;20466;-80
2023/04/29 10:35:24;;;;;;;16.30;15.73;;;17.90;1.00;;;;;;4958265;28;20466;-80
2023/04/29 10:37:54;;;;;;;16.60;16.00;;;17.80;1.00;;;;;;4960881;28;20472;-80
2023/04/29 10:40:28;;;;;;;16.90;16.00;;;17.70;1.00;;;;;;4960143;28;20478;-80
2023/04/29 10:42:56;;;;;;;16.00;15.60;;;17.70;1.00;;;;;;4961393;28;20467;-80
2023/04/29 10:45:27;;;;;;;16.00;15.60;;;17.70;1.00;;;;;;4961573;28;20477;-79
2023/04/29 10:48:14;;;;;;;16.50;16.00;;;17.80;1.00;;;;;;4961049;28;20463;-81
2023/04/29 10:51:03;;;;;;;16.70;16.13;;;17.90;1.00;;;;;;4960105;28;20454;-80
2023/04/29 10:53:31;;;;;;;16.13;15.63;;;17.90;1.00;;;;;;4962657;28;20459;-79
2023/04/29 10:56:05;;;;;;;16.00;15.50;;;18.00;1.00;;;;;;4955989;28;20813;-78
2023/04/29 10:58:51;;;;;;;17.00;16.30;;;18.10;1.00;;;;;;4954950;28;20489;-79
2023/04/29 11:01:43;;;;;;;16.50;16.00;;;18.30;99.90;;;;;;4960011;28;20455;-85
2023/04/29 11:04:12;;;;;;;15.77;15.37;;;18.30;99.90;;;;;;4955847;28;20493;-80
2023/04/29 11:06:47;;;;;;;16.17;15.63;;;18.30;99.90;;;;;;4957008;28;21190;-79
2023/04/29 11:09:26;;;;;;;16.03;15.50;;;18.30;99.90;;;;;;4960462;28;20481;-80
2023/04/29 11:12:01;;;;;;;16.80;16.20;;;18.30;99.90;;;;;;4959187;28;20470;-80
2023/04/29 11:14:36;;;;;;;16.03;15.63;;;18.30;99.90;;;;;;4952625;28;20470;-80
2023/04/29 11:17:08;;;;;;;16.03;15.53;;;18.30;99.90;;;;;;4961658;28;20452;-78
2023/04/29 11:19:37;;;;;;;16.50;16.00;;;18.30;99.90;;;;;;4957354;28;20975;-79
2023/04/29 11:22:26;;;;;;;16.70;16.10;;;18.20;99.90;;;;;;4956468;28;20462;-78
2023/04/29 11:24:57;;;;;;;16.30;15.80;;;18.10;99.90;;;;;;4954392;28;20489;-78
2023/04/29 11:27:27;;;;;;;16.97;16.37;;;18.20;99.90;;;;;;4958094;28;20474;-79
2023/04/29 11:29:57;;;;;;;16.43;15.83;;;18.30;99.90;;;;;;4962210;28;20546;-78
2023/04/29 11:32:26;;;;;;;15.53;15.13;;;18.40;99.90;;;;;;4961182;28;20558;-79
2023/04/29 11:34:55;;;;;;;16.97;16.47;;;18.40;99.90;;;;;;4958641;28;20447;-78
2023/04/29 11:37:26;;;;;;;16.60;16.00;;;18.30;99.90;;;;;;4957965;28;20457;-79
2023/04/29 11:40:00;;;;;;;16.27;15.77;;;18.20;99.90;;;;;;4956277;28;20511;-80
2023/04/29 11:42:28;;;;;;;16.43;15.83;;;18.20;99.90;;;;;;4956366;28;20466;-79
2023/04/29 11:44:58;;;;;;;17.13;16.53;;;18.20;99.90;;;;;;4964042;28;20542;-82
2023/04/29 11:47:28;;;;;;;17.23;16.43;;;18.30;99.90;;;;;;4960524;28;21513;-86
2023/04/29 11:50:04;;;;;;;17.07;16.27;;;18.40;99.90;;;;;;4967355;28;20458;-84
2023/04/29 11:52:35;;;;;;;16.20;15.70;;;18.40;99.90;;;;;;4961652;28;20457;-82
2023/04/29 11:55:04;;;;;;;16.93;16.20;;;18.40;99.90;;;;;;4961258;28;20549;-85
2023/04/29 11:57:33;;;;;;;15.47;14.83;;;18.50;99.90;;;;;;4963885;28;20492;-84
2023/04/29 12:00:01;;;;;;;16.00;15.20;;;18.40;99.90;;;;;;4959129;28;21017;-84
2023/04/29 12:02:30;;;;;;;16.00;15.50;;;18.40;99.90;;;;;;4964027;28;20462;-81
2023/04/29 12:04:59;;;;;;;15.60;15.10;;;18.50;99.90;;;;;;4957829;28;20498;-81
2023/04/29 12:07:29;;;;;;;15.13;14.63;;;18.60;99.90;;;;;;4959261;28;20491;-81
2023/04/29 12:09:58;;;;;;;15.20;14.80;;;18.60;99.90;;;;;;4961100;28;20883;-82
2023/04/29 12:12:28;;;;;;;15.00;14.60;;;18.60;99.90;;;;;;4960662;28;20776;-80
2023/04/29 12:14:56;;;;;;;15.07;14.67;;;18.60;99.90;;;;;;4958540;28;20959;-84
2023/04/29 12:17:24;;;;;;;15.00;14.60;;;18.60;99.90;;;;;;4962481;28;21211;-83
2023/04/29 12:19:53;;;;;;;15.83;15.23;;;18.60;99.90;;;;;;4963862;28;20470;-84
2023/04/29 12:22:21;;;;;;;14.60;14.20;;;18.70;99.90;;;;;;4962729;28;20456;-84
2023/04/29 12:24:53;;;;;;;15.20;14.80;;;18.80;99.90;;;;;;4965377;28;20487;-80
2023/04/29 12:27:23;;;;;;;15.50;15.10;;;18.80;99.90;;;;;;4958995;28;20452;-81
2023/04/29 12:29:52;;;;;;;15.20;14.80;;;18.80;99.90;;;;;;4964246;28;20451;-84
2023/04/29 12:32:26;;;;;;;15.50;15.10;;;18.80;99.90;;;;;;4960434;28;20992;-85
2023/04/29 12:34:55;;;;;;;15.40;15.00;;;18.80;99.90;;;;;;4961431;28;20483;-84
2023/04/29 12:37:24;;;;;;;14.90;14.50;;;18.80;99.90;;;;;;4954361;28;20542;-84
2023/04/29 12:39:55;;;;;;;15.50;14.93;;;18.80;99.90;;;;;;4961163;28;20462;-82
2023/04/29 12:42:31;;;;;;;15.03;14.60;;;18.70;99.90;;;;;;4966164;28;21186;-83
2023/04/29 12:45:00;;;;;;;15.37;14.67;;;18.70;99.90;;;;;;4956418;28;20479;-85
2023/04/29 12:47:33;;;;;;;14.90;14.40;;;18.60;99.90;;;;;;4961895;28;20483;-84